Baker City, Oregon
Current Conditions -  °F | °C
As of 4:19 AM on Friday 28 Nov 2014 (Local Time) from KBKE Reporting Station
Broken Clouds Broken Clouds  
Wind Chill: 40°   Ceiling: 9500
Heat Index: 47°   Visibility: 10mi
Dew Point: 37°   Wind: 17mph
Humidity: 68%   Direction: 120°ESE
Pressure: 29.8"   Gusts: 29mph
Location:  44.77°N, 117.83°W
Report Text: KBKE 281219Z AUTO 12015G25KT 10SM FEW042 SCT065 BKN095 08/03 A2980 RMK AO2 PK WND 15028/1208 WSHFT 1159 T00830028 $
Loading
Personal Weather Stations






























Interactive Weather Map New forecast layout! Learn more

10-Day Weather Forecast

Advertisements
Track Severe Weather on mobile